KFLL

Fort Lauderdale / Hollywood International Airport

Fort Lauderdale, Florida, USA
KFLL 182320Z 1900/2006 10010KT P6SM SCT030 SCT070 BKN250 FM190600 VRB05KT P6SM FEW027 SCT060 BKN090 FM191500 10007KT P6SM SCT040 BKN100 FM191800 12010KT P6SM SCT030 BKN050 BKN100 FM200100 VRB03KT P6SM SCT040 BKN100
Issued Valid From Valid To
Nov-18 @ 23:20 UTC
(2 hours ago)
Nov-19 @ 00:00 UTC
(an hour ago)
Nov-20 @ 06:00 UTC
(-1 days ago)
Nov-19 @ 00:00 to Nov-19 @ 06:00
KFLL 182320Z 1900/2006 10010KT P6SM SCT030 SCT070 BKN250
Wind Visibility Clouds
100° at 10 knots Greater than 6 miles
  • Scattered at 3,000' AGL
  • Scattered at 7,000' AGL
  • Broken at 25,000' AGL
From Nov-19 @ 06:00 to Nov-19 @ 15:00
FM190600 VRB05KT P6SM FEW027 SCT060 BKN090
Wind Visibility Clouds
Variable at 5 knots Greater than 6 miles
  • Few at 2,700' AGL
  • Scattered at 6,000' AGL
  • Broken at 9,000' AGL
From Nov-19 @ 15:00 to Nov-19 @ 18:00
FM191500 10007KT P6SM SCT040 BKN100
Wind Visibility Clouds
100° at 7 knots Greater than 6 miles
  • Scattered at 4,000' AGL
  • Broken at 10,000' AGL
From Nov-19 @ 18:00 to Nov-20 @ 01:00
FM191800 12010KT P6SM SCT030 BKN050 BKN100
Wind Visibility Clouds
120° at 10 knots Greater than 6 miles
  • Scattered at 3,000' AGL
  • Broken at 5,000' AGL
  • Broken at 10,000' AGL
From Nov-20 @ 01:00 to Nov-20 @ 06:00
FM200100 VRB03KT P6SM SCT040 BKN100
Wind Visibility Clouds
Variable at 3 knots Greater than 6 miles
  • Scattered at 4,000' AGL
  • Broken at 10,000' AGL
KFLL 182320Z 1900/2006 10010KT P6SM SCT030 SCT070 BKN250 FM190600 VRB05KT P6SM FEW027 SCT060 BKN090 FM191500 10007KT P6SM SCT040 BKN100 FM191800 12010KT P6SM SCT030 BKN050 BKN100 FM200100 VRB03KT P6SM SCT040 BKN100
Issued Nov-18 @ 23:20 UTC
(2 hours ago)
Valid From Nov-19 @ 00:00 UTC
(an hour ago)
Valid To Nov-20 @ 06:00 UTC
(-1 days ago)
Nov-19 @ 00:00 - Nov-19 @ 06:00
Wind Visibility
100° at 10 knots Greater than 6 miles
Clouds
  • Scattered at 3,000' AGL
  • Scattered at 7,000' AGL
  • Broken at 25,000' AGL
From Nov-19 @ 06:00 - Nov-19 @ 15:00
Wind Visibility
Variable at 5 knots Greater than 6 miles
Clouds
  • Few at 2,700' AGL
  • Scattered at 6,000' AGL
  • Broken at 9,000' AGL
From Nov-19 @ 15:00 - Nov-19 @ 18:00
Wind Visibility
100° at 7 knots Greater than 6 miles
Clouds
  • Scattered at 4,000' AGL
  • Broken at 10,000' AGL
From Nov-19 @ 18:00 - Nov-20 @ 01:00
Wind Visibility
120° at 10 knots Greater than 6 miles
Clouds
  • Scattered at 3,000' AGL
  • Broken at 5,000' AGL
  • Broken at 10,000' AGL
From Nov-20 @ 01:00 - Nov-20 @ 06:00
Wind Visibility
Variable at 3 knots Greater than 6 miles
Clouds
  • Scattered at 4,000' AGL
  • Broken at 10,000' AGL